sensor_id;sensor_type;location;lat;lon;timestamp;pressure;altitude;pressure_sealevel;temperature;humidity
5298;BME280;14738;42.668;23.250;2023-02-17T00:01:58;48576.91;;;-141.90;52.45
5298;BME280;14738;42.668;23.250;2023-02-17T00:04:23;48592.81;;;-141.90;52.36
5298;BME280;14738;42.668;23.250;2023-02-17T00:06:48;48580.88;;;-141.90;52.56
5298;BME280;14738;42.668;23.250;2023-02-17T00:09:14;48568.97;;;-141.90;52.70
5298;BME280;14738;42.668;23.250;2023-02-17T00:11:40;48541.19;;;-141.90;52.82
5298;BME280;14738;42.668;23.250;2023-02-17T00:14:05;48590.81;;;-141.90;53.27
5298;BME280;14738;42.668;23.250;2023-02-17T00:16:32;48568.97;;;-141.90;54.40
5298;BME280;14738;42.668;23.250;2023-02-17T00:19:00;48588.84;;;-141.90;54.16
5298;BME280;14738;42.668;23.250;2023-02-17T00:21:27;48584.84;;;-141.90;54.38
5298;BME280;14738;42.668;23.250;2023-02-17T00:23:53;48604.72;;;-141.90;54.74
5298;BME280;14738;42.668;23.250;2023-02-17T00:26:20;48572.94;;;-141.90;55.22
5298;BME280;14738;42.668;23.250;2023-02-17T00:28:46;48604.72;;;-141.90;55.22
5298;BME280;14738;42.668;23.250;2023-02-17T00:31:15;48539.19;;;-141.90;56.28
5298;BME280;14738;42.668;23.250;2023-02-17T00:33:41;48608.69;;;-141.90;57.25
5298;BME280;14738;42.668;23.250;2023-02-17T00:36:10;48640.44;;;-141.90;57.35
5298;BME280;14738;42.668;23.250;2023-02-17T00:38:36;48596.78;;;-141.90;57.17
5298;BME280;14738;42.668;23.250;2023-02-17T00:41:02;48588.84;;;-141.90;56.50
5298;BME280;14738;42.668;23.250;2023-02-17T00:43:27;48584.84;;;-141.90;56.13
5298;BME280;14738;42.668;23.250;2023-02-17T00:45:53;48610.66;;;-141.90;56.28
5298;BME280;14738;42.668;23.250;2023-02-17T00:48:22;48584.84;;;-141.90;55.96
5298;BME280;14738;42.668;23.250;2023-02-17T00:50:47;48588.84;;;-141.90;56.26
5298;BME280;14738;42.668;23.250;2023-02-17T00:53:13;48582.88;;;-141.90;56.72
5298;BME280;14738;42.668;23.250;2023-02-17T00:55:38;48576.91;;;-141.90;56.76
5298;BME280;14738;42.668;23.250;2023-02-17T00:58:04;48596.78;;;-141.90;56.68
5298;BME280;14738;42.668;23.250;2023-02-17T01:00:29;48604.72;;;-141.90;55.85
5298;BME280;14738;42.668;23.250;2023-02-17T01:02:56;48576.91;;;-141.90;54.85
5298;BME280;14738;42.668;23.250;2023-02-17T01:05:21;48598.75;;;-141.90;54.03
5298;BME280;14738;42.668;23.250;2023-02-17T01:07:46;48582.88;;;-141.90;54.06
5298;BME280;14738;42.668;23.250;2023-02-17T01:10:12;48574.94;;;-141.90;53.88
5298;BME280;14738;42.668;23.250;2023-02-17T01:12:38;48551.09;;;-141.90;53.02
5298;BME280;14738;42.668;23.250;2023-02-17T01:15:04;48594.78;;;-141.90;52.54
5298;BME280;14738;42.668;23.250;2023-02-17T01:17:29;48572.94;;;-141.90;53.14
5298;BME280;14738;42.668;23.250;2023-02-17T01:19:56;48580.88;;;-141.90;53.82
5298;BME280;14738;42.668;23.250;2023-02-17T01:22:21;48588.84;;;-141.90;54.94
5298;BME280;14738;42.668;23.250;2023-02-17T01:24:47;48563.03;;;-141.90;55.13
5298;BME280;14738;42.668;23.250;2023-02-17T01:27:13;48568.97;;;-141.90;55.59
5298;BME280;14738;42.668;23.250;2023-02-17T01:29:38;48608.69;;;-141.90;56.36
5298;BME280;14738;42.668;23.250;2023-02-17T01:32:04;48578.91;;;-141.90;56.29
5298;BME280;14738;42.668;23.250;2023-02-17T01:34:29;48594.78;;;-141.90;55.92
5298;BME280;14738;42.668;23.250;2023-02-17T01:36:55;48584.84;;;-141.90;55.44
5298;BME280;14738;42.668;23.250;2023-02-17T01:39:20;48590.81;;;-141.90;54.88
5298;BME280;14738;42.668;23.250;2023-02-17T01:41:46;48604.72;;;-141.90;54.13
5298;BME280;14738;42.668;23.250;2023-02-17T01:46:38;48592.81;;;-141.90;54.52
5298;BME280;14738;42.668;23.250;2023-02-17T01:49:12;48572.94;;;-141.90;55.50
5298;BME280;14738;42.668;23.250;2023-02-17T01:51:39;48559.06;;;-141.90;55.29
5298;BME280;14738;42.668;23.250;2023-02-17T01:54:11;48565.00;;;-141.90;55.31
5298;BME280;14738;42.668;23.250;2023-02-17T01:56:40;48600.75;;;-141.90;55.87
5298;BME280;14738;42.668;23.250;2023-02-17T01:59:12;48580.88;;;-141.90;54.72
5298;BME280;14738;42.668;23.250;2023-02-17T02:01:40;48576.91;;;-141.90;54.01
5298;BME280;14738;42.668;23.250;2023-02-17T02:04:06;48578.91;;;-141.90;54.16
5298;BME280;14738;42.668;23.250;2023-02-17T02:06:34;48576.91;;;-141.90;54.77
5298;BME280;14738;42.668;23.250;2023-02-17T02:11:38;48600.75;;;-141.90;57.17
5298;BME280;14738;42.668;23.250;2023-02-17T02:14:06;48614.63;;;-141.90;57.99
5298;BME280;14738;42.668;23.250;2023-02-17T02:17:25;48596.78;;;-141.90;58.43
5298;BME280;14738;42.668;23.250;2023-02-17T02:28:29;48588.84;;;-141.90;58.95
5298;BME280;14738;42.668;23.250;2023-02-17T02:36:28;48582.88;;;-141.90;60.51
5298;BME280;14738;42.668;23.250;2023-02-17T02:39:06;48612.66;;;-141.90;60.06
5298;BME280;14738;42.668;23.250;2023-02-17T02:41:38;48568.97;;;-141.90;59.74
5298;BME280;14738;42.668;23.250;2023-02-17T02:44:06;48580.88;;;-141.90;58.16
5298;BME280;14738;42.668;23.250;2023-02-17T02:46:33;48580.88;;;-141.90;58.36
5298;BME280;14738;42.668;23.250;2023-02-17T02:48:59;48588.84;;;-141.90;58.21
5298;BME280;14738;42.668;23.250;2023-02-17T02:51:55;48590.81;;;-141.90;57.71
5298;BME280;14738;42.668;23.250;2023-02-17T02:54:37;48594.78;;;-141.90;58.66
5298;BME280;14738;42.668;23.250;2023-02-17T03:02:56;48578.91;;;-141.90;59.23
5298;BME280;14738;42.668;23.250;2023-02-17T03:05:51;48608.69;;;-141.90;59.27
5298;BME280;14738;42.668;23.250;2023-02-17T03:08:27;48610.66;;;-141.90;58.76
5298;BME280;14738;42.668;23.250;2023-02-17T03:10:56;48582.88;;;-141.90;57.97
5298;BME280;14738;42.668;23.250;2023-02-17T03:13:21;48628.53;;;-141.90;57.84
5298;BME280;14738;42.668;23.250;2023-02-17T03:15:48;48592.81;;;-141.90;58.43
5298;BME280;14738;42.668;23.250;2023-02-17T03:18:13;48602.72;;;-141.90;58.56
5298;BME280;14738;42.668;23.250;2023-02-17T03:20:47;48592.81;;;-141.90;58.54
5298;BME280;14738;42.668;23.250;2023-02-17T03:23:14;48590.81;;;-141.90;58.67
5298;BME280;14738;42.668;23.250;2023-02-17T03:25:39;48606.69;;;-141.90;59.43
5298;BME280;14738;42.668;23.250;2023-02-17T03:28:05;48588.84;;;-141.90;59.55
5298;BME280;14738;42.668;23.250;2023-02-17T03:30:30;48608.69;;;-141.90;59.39
5298;BME280;14738;42.668;23.250;2023-02-17T03:32:55;48594.78;;;-141.90;59.15
5298;BME280;14738;42.668;23.250;2023-02-17T03:35:21;48598.75;;;-141.90;58.83
5298;BME280;14738;42.668;23.250;2023-02-17T03:37:46;48602.72;;;-141.90;57.58
5298;BME280;14738;42.668;23.250;2023-02-17T03:40:12;48578.91;;;-141.90;56.77
5298;BME280;14738;42.668;23.250;2023-02-17T03:42:37;48574.94;;;-141.90;55.79
5298;BME280;14738;42.668;23.250;2023-02-17T03:45:03;48610.66;;;-141.90;56.31
5298;BME280;14738;42.668;23.250;2023-02-17T03:47:28;48584.84;;;-141.90;57.36
5298;BME280;14738;42.668;23.250;2023-02-17T03:49:54;48604.72;;;-141.90;58.36
5298;BME280;14738;42.668;23.250;2023-02-17T03:52:19;48604.72;;;-141.90;58.35
5298;BME280;14738;42.668;23.250;2023-02-17T03:54:44;48580.88;;;-141.90;58.16
5298;BME280;14738;42.668;23.250;2023-02-17T03:57:10;48559.06;;;-141.90;57.97
5298;BME280;14738;42.668;23.250;2023-02-17T03:59:36;48568.97;;;-141.90;58.13
5298;BME280;14738;42.668;23.250;2023-02-17T04:02:02;48561.03;;;-141.90;58.95
5298;BME280;14738;42.668;23.250;2023-02-17T04:04:27;48572.94;;;-141.90;59.20
5298;BME280;14738;42.668;23.250;2023-02-17T04:06:53;48620.59;;;-141.90;59.62
5298;BME280;14738;42.668;23.250;2023-02-17T04:09:18;48576.91;;;-141.90;60.44
5298;BME280;14738;42.668;23.250;2023-02-17T04:11:43;48596.78;;;-141.90;59.66
5298;BME280;14738;42.668;23.250;2023-02-17T04:14:09;48624.56;;;-141.90;59.74
5298;BME280;14738;42.668;23.250;2023-02-17T04:16:34;48584.84;;;-141.90;60.51
5298;BME280;14738;42.668;23.250;2023-02-17T04:19:04;48636.47;;;-141.90;59.97
5298;BME280;14738;42.668;23.250;2023-02-17T04:21:29;48596.78;;;-141.90;60.28
5298;BME280;14738;42.668;23.250;2023-02-17T04:23:54;48584.84;;;-141.90;59.65
5298;BME280;14738;42.668;23.250;2023-02-17T04:26:20;48525.31;;;-141.90;60.33
5298;BME280;14738;42.668;23.250;2023-02-17T04:28:45;48604.72;;;-141.90;61.38
5298;BME280;14738;42.668;23.250;2023-02-17T04:31:10;48612.66;;;-141.90;62.38
5298;BME280;14738;42.668;23.250;2023-02-17T04:33:36;48604.72;;;-141.90;64.00
5298;BME280;14738;42.668;23.250;2023-02-17T04:36:02;48614.63;;;-141.90;64.41
5298;BME280;14738;42.668;23.250;2023-02-17T04:38:29;48598.75;;;-141.90;65.69
5298;BME280;14738;42.668;23.250;2023-02-17T04:40:56;48622.59;;;-141.90;66.90
5298;BME280;14738;42.668;23.250;2023-02-17T04:43:23;48618.59;;;-141.90;66.51
5298;BME280;14738;42.668;23.250;2023-02-17T04:45:48;48588.84;;;-141.90;66.64
5298;BME280;14738;42.668;23.250;2023-02-17T04:48:14;48620.59;;;-141.90;66.05
5298;BME280;14738;42.668;23.250;2023-02-17T04:50:39;48614.63;;;-141.90;66.40
5298;BME280;14738;42.668;23.250;2023-02-17T04:53:05;48608.69;;;-141.90;68.11
5298;BME280;14738;42.668;23.250;2023-02-17T04:55:30;48608.69;;;-141.90;69.08
5298;BME280;14738;42.668;23.250;2023-02-17T04:57:57;48584.84;;;-141.90;68.33
5298;BME280;14738;42.668;23.250;2023-02-17T05:00:23;48588.84;;;-141.90;70.41
5298;BME280;14738;42.668;23.250;2023-02-17T05:02:48;48630.53;;;-141.90;73.10
5298;BME280;14738;42.668;23.250;2023-02-17T05:05:14;48616.63;;;-141.90;76.88
5298;BME280;14738;42.668;23.250;2023-02-17T05:07:41;48618.59;;;-141.90;74.56
5298;BME280;14738;42.668;23.250;2023-02-17T05:10:07;48610.66;;;-141.90;71.89
5298;BME280;14738;42.668;23.250;2023-02-17T05:12:33;48614.63;;;-141.90;74.36
5298;BME280;14738;42.668;23.250;2023-02-17T05:14:59;48618.59;;;-141.90;76.66
5298;BME280;14738;42.668;23.250;2023-02-17T05:17:25;48614.63;;;-141.90;74.61
5298;BME280;14738;42.668;23.250;2023-02-17T05:19:50;48582.88;;;-141.90;75.85
5298;BME280;14738;42.668;23.250;2023-02-17T05:22:16;48624.56;;;-141.90;73.93
5298;BME280;14738;42.668;23.250;2023-02-17T05:24:41;48600.75;;;-141.90;73.73
5298;BME280;14738;42.668;23.250;2023-02-17T05:27:06;48634.50;;;-141.90;74.65
5298;BME280;14738;42.668;23.250;2023-02-17T05:29:32;48620.59;;;-141.90;78.85
5298;BME280;14738;42.668;23.250;2023-02-17T05:31:57;48584.84;;;-141.90;74.33
5298;BME280;14738;42.668;23.250;2023-02-17T05:34:23;48598.75;;;-141.90;75.43
5298;BME280;14738;42.668;23.250;2023-02-17T05:36:48;48608.69;;;-141.90;75.34
5298;BME280;14738;42.668;23.250;2023-02-17T05:39:14;48588.84;;;-141.90;74.29
5298;BME280;14738;42.668;23.250;2023-02-17T05:41:39;48600.75;;;-141.90;72.63
5298;BME280;14738;42.668;23.250;2023-02-17T05:44:05;48600.75;;;-141.90;70.33
5298;BME280;14738;42.668;23.250;2023-02-17T05:46:30;48618.59;;;-141.90;70.43
5298;BME280;14738;42.668;23.250;2023-02-17T05:48:55;48608.69;;;-141.90;69.02
5298;BME280;14738;42.668;23.250;2023-02-17T05:51:21;48616.63;;;-141.90;67.66
5298;BME280;14738;42.668;23.250;2023-02-17T05:53:46;48555.09;;;-141.90;63.82
5298;BME280;14738;42.668;23.250;2023-02-17T05:56:12;48568.97;;;-141.90;63.12
5298;BME280;14738;42.668;23.250;2023-02-17T05:58:37;48584.84;;;-141.90;60.88
5298;BME280;14738;42.668;23.250;2023-02-17T06:01:07;48553.09;;;-141.90;59.03
5298;BME280;14738;42.668;23.250;2023-02-17T06:03:33;48624.56;;;-141.90;58.24
5298;BME280;14738;42.668;23.250;2023-02-17T06:05:58;48620.59;;;-141.90;55.52
5298;BME280;14738;42.668;23.250;2023-02-17T06:08:24;48572.94;;;-141.90;54.17
5298;BME280;14738;42.668;23.250;2023-02-17T06:10:51;48559.06;;;-141.90;53.35
5298;BME280;14738;42.668;23.250;2023-02-17T06:13:17;48555.09;;;-141.90;51.94
5298;BME280;14738;42.668;23.250;2023-02-17T06:15:43;48545.16;;;-141.90;51.92
5298;BME280;14738;42.668;23.250;2023-02-17T06:18:08;48565.00;;;-141.90;52.02
5298;BME280;14738;42.668;23.250;2023-02-17T06:20:33;48555.09;;;-141.90;51.28
5298;BME280;14738;42.668;23.250;2023-02-17T06:22:59;48557.06;;;-141.90;51.80
5298;BME280;14738;42.668;23.250;2023-02-17T06:25:24;48549.13;;;-141.90;51.33
5298;BME280;14738;42.668;23.250;2023-02-17T06:27:50;48517.34;;;-141.90;50.91
5298;BME280;14738;42.668;23.250;2023-02-17T06:30:15;48541.19;;;-141.90;50.20
5298;BME280;14738;42.668;23.250;2023-02-17T06:32:42;48523.31;;;-141.90;47.88
5298;BME280;14738;42.668;23.250;2023-02-17T06:35:07;48541.19;;;-141.90;46.32
5298;BME280;14738;42.668;23.250;2023-02-17T06:37:33;48521.34;;;-141.90;44.39
5298;BME280;14738;42.668;23.250;2023-02-17T06:39:58;48547.13;;;-141.90;43.71
5298;BME280;14738;42.668;23.250;2023-02-17T06:42:24;48509.41;;;-141.90;42.07
5298;BME280;14738;42.668;23.250;2023-02-17T06:44:49;48489.56;;;-141.90;42.15
5298;BME280;14738;42.668;23.250;2023-02-17T06:47:15;48501.47;;;-141.90;42.04
5298;BME280;14738;42.668;23.250;2023-02-17T06:49:40;48509.41;;;-141.90;41.34
5298;BME280;14738;42.668;23.250;2023-02-17T06:52:06;48529.28;;;-141.90;42.31
5298;BME280;14738;42.668;23.250;2023-02-17T06:54:31;48523.31;;;-141.90;42.78
5298;BME280;14738;42.668;23.250;2023-02-17T06:56:57;48507.44;;;-141.90;42.13
5298;BME280;14738;42.668;23.250;2023-02-17T06:59:22;48517.34;;;-141.90;41.80
5298;BME280;14738;42.668;23.250;2023-02-17T07:01:48;48497.50;;;-141.90;42.12
5298;BME280;14738;42.668;23.250;2023-02-17T07:04:15;48485.59;;;-141.90;42.20
5298;BME280;14738;42.668;23.250;2023-02-17T07:06:40;48487.56;;;-141.90;42.11
5298;BME280;14738;42.668;23.250;2023-02-17T07:09:05;48499.50;;;-141.90;42.46
5298;BME280;14738;42.668;23.250;2023-02-17T07:11:31;48541.19;;;-141.90;42.70
5298;BME280;14738;42.668;23.250;2023-02-17T07:13:58;48517.34;;;-141.90;42.78
5298;BME280;14738;42.668;23.250;2023-02-17T07:16:23;48489.56;;;-141.90;42.48
5298;BME280;14738;42.668;23.250;2023-02-17T07:18:49;48497.50;;;-141.90;41.92
5298;BME280;14738;42.668;23.250;2023-02-17T07:21:15;48525.31;;;-141.90;42.55
5298;BME280;14738;42.668;23.250;2023-02-17T07:23:41;48483.59;;;-141.90;41.39
5298;BME280;14738;42.668;23.250;2023-02-17T07:26:08;48519.34;;;-141.90;41.79
5298;BME280;14738;42.668;23.250;2023-02-17T07:28:35;48509.41;;;-141.90;41.83
5298;BME280;14738;42.668;23.250;2023-02-17T07:31:08;48495.53;;;-141.90;42.61
5298;BME280;14738;42.668;23.250;2023-02-17T07:33:34;48519.34;;;-141.90;42.64
5298;BME280;14738;42.668;23.250;2023-02-17T07:36:00;48499.50;;;-141.90;41.24
5298;BME280;14738;42.668;23.250;2023-02-17T07:38:25;48497.50;;;-141.90;42.48
5298;BME280;14738;42.668;23.250;2023-02-17T07:40:51;48485.59;;;-141.90;41.11
5298;BME280;14738;42.668;23.250;2023-02-17T07:43:16;48493.53;;;-141.90;41.28
5298;BME280;14738;42.668;23.250;2023-02-17T07:45:41;48521.34;;;-141.90;41.07
5298;BME280;14738;42.668;23.250;2023-02-17T07:48:07;48509.41;;;-141.90;40.41
5298;BME280;14738;42.668;23.250;2023-02-17T07:50:32;48515.38;;;-141.90;40.44
5298;BME280;14738;42.668;23.250;2023-02-17T07:52:58;48481.63;;;-141.90;40.59
5298;BME280;14738;42.668;23.250;2023-02-17T07:55:24;48493.53;;;-141.90;40.80
5298;BME280;14738;42.668;23.250;2023-02-17T07:57:49;48483.59;;;-141.90;40.55
5298;BME280;14738;42.668;23.250;2023-02-17T08:00:17;48497.50;;;-141.90;40.16
5298;BME280;14738;42.668;23.250;2023-02-17T08:02:42;48489.56;;;-141.90;39.55
5298;BME280;14738;42.668;23.250;2023-02-17T08:05:08;48443.91;;;-141.90;39.63
5298;BME280;14738;42.668;23.250;2023-02-17T08:07:33;48473.69;;;-141.90;38.79
5298;BME280;14738;42.668;23.250;2023-02-17T08:09:59;48453.81;;;-141.90;38.92
5298;BME280;14738;42.668;23.250;2023-02-17T08:12:43;48499.50;;;-141.90;38.41
5298;BME280;14738;42.668;23.250;2023-02-17T08:15:14;48469.72;;;-141.90;38.67
5298;BME280;14738;42.668;23.250;2023-02-17T08:17:40;48426.03;;;-141.90;38.08
5298;BME280;14738;42.668;23.250;2023-02-17T08:20:06;48485.59;;;-141.90;37.25
5298;BME280;14738;42.668;23.250;2023-02-17T08:22:32;48493.53;;;-141.90;33.32
5298;BME280;14738;42.668;23.250;2023-02-17T08:24:57;48449.84;;;-141.90;32.69
5298;BME280;14738;42.668;23.250;2023-02-17T08:27:23;48441.91;;;-141.90;31.79
5298;BME280;14738;42.668;23.250;2023-02-17T08:29:48;48449.84;;;-141.90;30.79
5298;BME280;14738;42.668;23.250;2023-02-17T08:32:14;48449.84;;;-141.90;30.35
5298;BME280;14738;42.668;23.250;2023-02-17T08:34:40;48441.91;;;-141.90;29.88
5298;BME280;14738;42.668;23.250;2023-02-17T08:37:07;48451.84;;;-141.90;29.96
5298;BME280;14738;42.668;23.250;2023-02-17T08:39:33;48441.91;;;-141.90;29.50
5298;BME280;14738;42.668;23.250;2023-02-17T08:41:59;48451.84;;;-141.90;29.13
5298;BME280;14738;42.668;23.250;2023-02-17T08:44:24;48469.72;;;-141.90;28.65
5298;BME280;14738;42.668;23.250;2023-02-17T08:46:51;48453.81;;;-141.90;28.40
5298;BME280;14738;42.668;23.250;2023-02-17T08:49:20;48443.91;;;-141.90;27.81
5298;BME280;14738;42.668;23.250;2023-02-17T08:51:46;48477.66;;;-141.90;27.29
5298;BME280;14738;42.668;23.250;2023-02-17T08:54:13;48439.94;;;-141.90;26.68
5298;BME280;14738;42.668;23.250;2023-02-17T08:57:00;48447.88;;;-141.90;26.85
5298;BME280;14738;42.668;23.250;2023-02-17T08:59:26;48398.25;;;-141.90;25.48
5298;BME280;14738;42.668;23.250;2023-02-17T09:01:51;48445.88;;;-141.90;25.61
5298;BME280;14738;42.668;23.250;2023-02-17T09:04:17;48435.97;;;-141.90;24.62
5298;BME280;14738;42.668;23.250;2023-02-17T09:06:48;48453.81;;;-141.90;24.61
5298;BME280;14738;42.668;23.250;2023-02-17T09:09:17;48430.00;;;-141.90;24.92
5298;BME280;14738;42.668;23.250;2023-02-17T09:11:44;48388.31;;;-141.90;25.34
5298;BME280;14738;42.668;23.250;2023-02-17T09:14:09;48465.75;;;-141.90;25.28
5298;BME280;14738;42.668;23.250;2023-02-17T09:16:35;48463.75;;;-141.90;24.30
5298;BME280;14738;42.668;23.250;2023-02-17T09:19:01;48453.81;;;-141.90;25.57
5298;BME280;14738;42.668;23.250;2023-02-17T09:21:26;48457.81;;;-141.90;24.09
5298;BME280;14738;42.668;23.250;2023-02-17T09:23:52;48467.72;;;-141.90;24.39
5298;BME280;14738;42.668;23.250;2023-02-17T09:26:18;48455.81;;;-141.90;24.74
5298;BME280;14738;42.668;23.250;2023-02-17T09:28:44;48463.75;;;-141.90;23.73
5298;BME280;14738;42.668;23.250;2023-02-17T09:31:11;48451.84;;;-141.90;23.76
5298;BME280;14738;42.668;23.250;2023-02-17T09:33:39;48441.91;;;-141.90;23.65
5298;BME280;14738;42.668;23.250;2023-02-17T09:36:05;48467.72;;;-141.90;24.16
5298;BME280;14738;42.668;23.250;2023-02-17T09:38:31;48473.69;;;-141.90;24.54
5298;BME280;14738;42.668;23.250;2023-02-17T09:41:02;48465.75;;;-141.90;24.46
5298;BME280;14738;42.668;23.250;2023-02-17T09:43:32;48443.91;;;-141.90;23.17
5298;BME280;14738;42.668;23.250;2023-02-17T09:46:04;48439.94;;;-141.90;22.85
5298;BME280;14738;42.668;23.250;2023-02-17T09:48:32;48426.03;;;-141.90;22.74
5298;BME280;14738;42.668;23.250;2023-02-17T09:51:12;48445.88;;;-141.90;22.86
5298;BME280;14738;42.668;23.250;2023-02-17T09:53:46;48457.81;;;-141.90;22.79
5298;BME280;14738;42.668;23.250;2023-02-17T09:56:16;48473.69;;;-141.90;22.90
5298;BME280;14738;42.668;23.250;2023-02-17T09:58:53;48437.94;;;-141.90;23.24
5298;BME280;14738;42.668;23.250;2023-02-17T10:01:23;48461.78;;;-141.90;23.19
5298;BME280;14738;42.668;23.250;2023-02-17T10:03:58;48433.97;;;-141.90;22.79
5298;BME280;14738;42.668;23.250;2023-02-17T10:06:37;48463.75;;;-141.90;23.35
5298;BME280;14738;42.668;23.250;2023-02-17T10:12:07;48449.84;;;-141.90;23.10
5298;BME280;14738;42.668;23.250;2023-02-17T10:14:39;48394.28;;;-141.90;22.44
5298;BME280;14738;42.668;23.250;2023-02-17T10:17:31;48445.88;;;-141.90;23.29
5298;BME280;14738;42.668;23.250;2023-02-17T10:20:11;48461.78;;;-141.90;22.47
5298;BME280;14738;42.668;23.250;2023-02-17T10:22:39;48426.03;;;-141.90;22.92
5298;BME280;14738;42.668;23.250;2023-02-17T10:25:15;48453.81;;;-141.90;22.97
5298;BME280;14738;42.668;23.250;2023-02-17T10:27:45;48461.78;;;-141.90;23.31
5298;BME280;14738;42.668;23.250;2023-02-17T10:35:17;48432.00;;;-141.90;23.11
5298;BME280;14738;42.668;23.250;2023-02-17T10:37:48;48485.59;;;-141.90;23.42
5298;BME280;14738;42.668;23.250;2023-02-17T10:40:26;48445.88;;;-141.90;22.81
5298;BME280;14738;42.668;23.250;2023-02-17T10:43:01;48432.00;;;-141.90;22.64
5298;BME280;14738;42.668;23.250;2023-02-17T10:45:32;48441.91;;;-141.90;22.71
5298;BME280;14738;42.668;23.250;2023-02-17T10:48:06;48445.88;;;-141.90;22.92
5298;BME280;14738;42.668;23.250;2023-02-17T10:50:33;48451.84;;;-141.90;22.75
5298;BME280;14738;42.668;23.250;2023-02-17T10:53:01;48432.00;;;-141.90;23.08
5298;BME280;14738;42.668;23.250;2023-02-17T10:55:40;48447.88;;;-141.90;22.80
5298;BME280;14738;42.668;23.250;2023-02-17T10:58:19;48445.88;;;-141.90;23.33
5298;BME280;14738;42.668;23.250;2023-02-17T11:00:51;48457.81;;;-141.90;22.67
5298;BME280;14738;42.668;23.250;2023-02-17T11:03:23;48406.19;;;-141.90;23.56
5298;BME280;14738;42.668;23.250;2023-02-17T11:06:13;48457.81;;;-141.90;22.56
5298;BME280;14738;42.668;23.250;2023-02-17T11:08:48;48447.88;;;-141.90;22.28
5298;BME280;14738;42.668;23.250;2023-02-17T11:11:31;48447.88;;;-141.90;22.74
5298;BME280;14738;42.668;23.250;2023-02-17T11:19:17;48465.75;;;-141.90;23.50
5298;BME280;14738;42.668;23.250;2023-02-17T11:21:45;48449.84;;;-141.90;23.04
5298;BME280;14738;42.668;23.250;2023-02-17T11:24:10;48433.97;;;-141.90;23.00
5298;BME280;14738;42.668;23.250;2023-02-17T11:26:36;48461.78;;;-141.90;23.53
5298;BME280;14738;42.668;23.250;2023-02-17T11:29:16;48453.81;;;-141.90;23.60
5298;BME280;14738;42.668;23.250;2023-02-17T11:32:13;48437.94;;;-141.90;23.69
5298;BME280;14738;42.668;23.250;2023-02-17T11:34:40;48441.91;;;-141.90;23.33
5298;BME280;14738;42.668;23.250;2023-02-17T11:39:40;48463.75;;;-141.90;24.04
5298;BME280;14738;42.668;23.250;2023-02-17T11:42:29;48441.91;;;-141.90;23.93
5298;BME280;14738;42.668;23.250;2023-02-17T11:44:56;48469.72;;;-141.90;23.84
5298;BME280;14738;42.668;23.250;2023-02-17T11:53:07;48447.88;;;-141.90;24.23
5298;BME280;14738;42.668;23.250;2023-02-17T12:00:54;48481.63;;;-141.90;25.43
5298;BME280;14738;42.668;23.250;2023-02-17T12:11:38;48457.81;;;-141.90;25.00
5298;BME280;14738;42.668;23.250;2023-02-17T12:22:18;48445.88;;;-141.90;24.93
5298;BME280;14738;42.668;23.250;2023-02-17T12:25:14;48465.75;;;-141.90;24.72
5298;BME280;14738;42.668;23.250;2023-02-17T12:35:54;48457.81;;;-141.90;24.64
5298;BME280;14738;42.668;23.250;2023-02-17T12:38:29;48445.88;;;-141.90;24.17
5298;BME280;14738;42.668;23.250;2023-02-17T12:41:15;48453.81;;;-141.90;24.25
5298;BME280;14738;42.668;23.250;2023-02-17T12:43:52;48461.78;;;-141.90;23.91
5298;BME280;14738;42.668;23.250;2023-02-17T12:46:25;48433.97;;;-141.90;24.02
5298;BME280;14738;42.668;23.250;2023-02-17T12:51:44;48461.78;;;-141.90;24.21
5298;BME280;14738;42.668;23.250;2023-02-17T12:54:24;48449.84;;;-141.90;24.13
5298;BME280;14738;42.668;23.250;2023-02-17T12:57:01;48449.84;;;-141.90;24.26
5298;BME280;14738;42.668;23.250;2023-02-17T12:59:38;48414.13;;;-141.90;24.20
5298;BME280;14738;42.668;23.250;2023-02-17T13:04:35;48437.94;;;-141.90;24.49
5298;BME280;14738;42.668;23.250;2023-02-17T13:09:52;48435.97;;;-141.90;23.72
5298;BME280;14738;42.668;23.250;2023-02-17T13:17:23;48459.78;;;-141.90;23.99
5298;BME280;14738;42.668;23.250;2023-02-17T13:22:33;48437.94;;;-141.90;23.69
5298;BME280;14738;42.668;23.250;2023-02-17T13:24:59;48422.06;;;-141.90;24.21
5298;BME280;14738;42.668;23.250;2023-02-17T13:32:34;48453.81;;;-141.90;22.95
5298;BME280;14738;42.668;23.250;2023-02-17T13:35:10;48465.75;;;-141.90;23.28
5298;BME280;14738;42.668;23.250;2023-02-17T13:37:44;48437.94;;;-141.90;23.00
5298;BME280;14738;42.668;23.250;2023-02-17T13:42:49;48459.78;;;-141.90;22.95
5298;BME280;14738;42.668;23.250;2023-02-17T13:45:26;48435.97;;;-141.90;22.72
5298;BME280;14738;42.668;23.250;2023-02-17T13:47:57;48441.91;;;-141.90;22.87
5298;BME280;14738;42.668;23.250;2023-02-17T13:50:28;48469.72;;;-141.90;22.80
5298;BME280;14738;42.668;23.250;2023-02-17T13:52:54;48477.66;;;-141.90;23.17
5298;BME280;14738;42.668;23.250;2023-02-17T13:55:21;48430.00;;;-141.90;22.96
5298;BME280;14738;42.668;23.250;2023-02-17T13:57:55;48443.91;;;-141.90;22.72
5298;BME280;14738;42.668;23.250;2023-02-17T14:00:24;48469.72;;;-141.90;22.39
5298;BME280;14738;42.668;23.250;2023-02-17T14:03:26;48430.00;;;-141.90;22.77
5298;BME280;14738;42.668;23.250;2023-02-17T14:05:55;48430.00;;;-141.90;22.53
5298;BME280;14738;42.668;23.250;2023-02-17T14:08:37;48453.81;;;-141.90;22.93
5298;BME280;14738;42.668;23.250;2023-02-17T14:11:10;48473.69;;;-141.90;22.62
5298;BME280;14738;42.668;23.250;2023-02-17T14:13:38;48449.84;;;-141.90;22.52
5298;BME280;14738;42.668;23.250;2023-02-17T14:16:04;48426.03;;;-141.90;22.02
5298;BME280;14738;42.668;23.250;2023-02-17T14:18:37;48362.50;;;-141.90;22.23
5298;BME280;14738;42.668;23.250;2023-02-17T14:21:09;48430.00;;;-141.90;22.14
5298;BME280;14738;42.668;23.250;2023-02-17T14:23:46;48433.97;;;-141.90;22.60
5298;BME280;14738;42.668;23.250;2023-02-17T14:26:43;48437.94;;;-141.90;22.75
5298;BME280;14738;42.668;23.250;2023-02-17T14:29:11;48441.91;;;-141.90;23.00